sensor_id;sensor_type;location;lat;lon;timestamp;temperature;humidity
1411;DHT22;700;51.906;8.404;2022-11-14T00:03:35;8.00;99.90
1411;DHT22;700;51.906;8.404;2022-11-14T00:08:37;7.90;99.90
1411;DHT22;700;51.906;8.404;2022-11-14T00:13:40;7.90;99.90
1411;DHT22;700;51.906;8.404;2022-11-14T00:18:44;7.90;99.90
1411;DHT22;700;51.906;8.404;2022-11-14T00:23:44;7.70;99.90
1411;DHT22;700;51.906;8.404;2022-11-14T00:28:47;7.40;99.90
1411;DHT22;700;51.906;8.404;2022-11-14T00:33:48;7.30;99.90
1411;DHT22;700;51.906;8.404;2022-11-14T00:38:53;7.20;99.90
1411;DHT22;700;51.906;8.404;2022-11-14T00:43:54;7.40;99.90
1411;DHT22;700;51.906;8.404;2022-11-14T00:49:00;7.20;99.90
1411;DHT22;700;51.906;8.404;2022-11-14T00:54:01;7.30;99.90
1411;DHT22;700;51.906;8.404;2022-11-14T00:59:02;7.30;99.90
1411;DHT22;700;51.906;8.404;2022-11-14T01:04:05;7.30;99.90
1411;DHT22;700;51.906;8.404;2022-11-14T01:09:05;7.20;99.90
1411;DHT22;700;51.906;8.404;2022-11-14T01:14:06;7.10;99.90
1411;DHT22;700;51.906;8.404;2022-11-14T01:19:10;7.20;99.90
1411;DHT22;700;51.906;8.404;2022-11-14T01:24:10;7.10;99.90
1411;DHT22;700;51.906;8.404;2022-11-14T01:29:11;7.10;99.90
1411;DHT22;700;51.906;8.404;2022-11-14T01:34:12;7.10;99.90
1411;DHT22;700;51.906;8.404;2022-11-14T01:39:12;7.20;99.90
1411;DHT22;700;51.906;8.404;2022-11-14T01:44:37;7.00;99.90
1411;DHT22;700;51.906;8.404;2022-11-14T01:49:40;6.90;99.90
1411;DHT22;700;51.906;8.404;2022-11-14T01:54:47;7.00;99.90
1411;DHT22;700;51.906;8.404;2022-11-14T01:59:51;6.90;99.90
1411;DHT22;700;51.906;8.404;2022-11-14T02:05:02;7.00;99.90
1411;DHT22;700;51.906;8.404;2022-11-14T02:10:08;6.90;99.90
1411;DHT22;700;51.906;8.404;2022-11-14T02:15:09;7.00;99.90
1411;DHT22;700;51.906;8.404;2022-11-14T02:25:16;6.70;99.90
1411;DHT22;700;51.906;8.404;2022-11-14T02:30:20;6.80;99.90
1411;DHT22;700;51.906;8.404;2022-11-14T02:35:21;6.60;99.90
1411;DHT22;700;51.906;8.404;2022-11-14T02:40:24;6.60;99.90
1411;DHT22;700;51.906;8.404;2022-11-14T02:45:25;6.70;99.90
1411;DHT22;700;51.906;8.404;2022-11-14T02:50:28;6.70;99.90
1411;DHT22;700;51.906;8.404;2022-11-14T02:55:29;6.80;99.90
1411;DHT22;700;51.906;8.404;2022-11-14T03:00:29;6.80;99.90
1411;DHT22;700;51.906;8.404;2022-11-14T03:05:35;6.90;99.90
1411;DHT22;700;51.906;8.404;2022-11-14T03:10:38;6.80;99.90
1411;DHT22;700;51.906;8.404;2022-11-14T03:15:41;7.00;99.90
1411;DHT22;700;51.906;8.404;2022-11-14T03:20:41;7.00;99.90
1411;DHT22;700;51.906;8.404;2022-11-14T03:25:42;7.00;99.90
1411;DHT22;700;51.906;8.404;2022-11-14T03:30:43;7.00;99.90
1411;DHT22;700;51.906;8.404;2022-11-14T03:35:48;7.00;99.90
1411;DHT22;700;51.906;8.404;2022-11-14T03:40:50;6.90;99.90
1411;DHT22;700;51.906;8.404;2022-11-14T03:45:51;7.10;99.90
1411;DHT22;700;51.906;8.404;2022-11-14T03:50:51;6.60;99.90
1411;DHT22;700;51.906;8.404;2022-11-14T03:55:52;6.60;99.90
1411;DHT22;700;51.906;8.404;2022-11-14T04:00:53;6.60;99.90
1411;DHT22;700;51.906;8.404;2022-11-14T04:05:55;6.50;99.90
1411;DHT22;700;51.906;8.404;2022-11-14T04:10:55;6.40;99.90
1411;DHT22;700;51.906;8.404;2022-11-14T04:15:59;6.60;99.90
1411;DHT22;700;51.906;8.404;2022-11-14T04:20:59;6.10;99.90
1411;DHT22;700;51.906;8.404;2022-11-14T04:26:00;6.10;99.90
1411;DHT22;700;51.906;8.404;2022-11-14T04:31:01;6.40;99.90
1411;DHT22;700;51.906;8.404;2022-11-14T04:36:02;6.30;99.90
1411;DHT22;700;51.906;8.404;2022-11-14T04:41:04;6.40;99.90
1411;DHT22;700;51.906;8.404;2022-11-14T04:46:09;6.50;99.90
1411;DHT22;700;51.906;8.404;2022-11-14T04:51:10;6.70;99.90
1411;DHT22;700;51.906;8.404;2022-11-14T04:56:11;6.70;99.90
1411;DHT22;700;51.906;8.404;2022-11-14T05:01:13;6.60;99.90
1411;DHT22;700;51.906;8.404;2022-11-14T05:06:15;6.60;99.90
1411;DHT22;700;51.906;8.404;2022-11-14T05:11:18;6.70;99.90
1411;DHT22;700;51.906;8.404;2022-11-14T05:16:18;7.00;99.90
1411;DHT22;700;51.906;8.404;2022-11-14T05:21:19;6.40;99.90
1411;DHT22;700;51.906;8.404;2022-11-14T05:26:22;6.50;99.90
1411;DHT22;700;51.906;8.404;2022-11-14T05:31:23;6.60;99.90
1411;DHT22;700;51.906;8.404;2022-11-14T05:36:24;6.60;99.90
1411;DHT22;700;51.906;8.404;2022-11-14T05:41:24;6.70;99.90
1411;DHT22;700;51.906;8.404;2022-11-14T05:46:25;6.60;99.90
1411;DHT22;700;51.906;8.404;2022-11-14T05:51:28;6.60;99.90
1411;DHT22;700;51.906;8.404;2022-11-14T05:56:29;6.70;99.90
1411;DHT22;700;51.906;8.404;2022-11-14T06:01:29;6.70;99.90
1411;DHT22;700;51.906;8.404;2022-11-14T06:06:32;6.70;99.90
1411;DHT22;700;51.906;8.404;2022-11-14T06:11:33;6.50;99.90
1411;DHT22;700;51.906;8.404;2022-11-14T06:16:36;6.90;99.90
1411;DHT22;700;51.906;8.404;2022-11-14T06:21:37;6.70;99.90
1411;DHT22;700;51.906;8.404;2022-11-14T06:26:38;6.70;99.90
1411;DHT22;700;51.906;8.404;2022-11-14T06:31:38;6.70;99.90
1411;DHT22;700;51.906;8.404;2022-11-14T06:36:44;6.80;99.90
1411;DHT22;700;51.906;8.404;2022-11-14T06:41:44;6.80;99.90
1411;DHT22;700;51.906;8.404;2022-11-14T06:46:45;6.90;99.90
1411;DHT22;700;51.906;8.404;2022-11-14T06:51:45;6.60;99.90
1411;DHT22;700;51.906;8.404;2022-11-14T06:56:46;6.60;99.90
1411;DHT22;700;51.906;8.404;2022-11-14T07:01:49;6.50;99.90
1411;DHT22;700;51.906;8.404;2022-11-14T07:06:49;6.90;99.90
1411;DHT22;700;51.906;8.404;2022-11-14T07:11:50;6.90;99.90
1411;DHT22;700;51.906;8.404;2022-11-14T07:16:51;6.70;99.90
1411;DHT22;700;51.906;8.404;2022-11-14T07:21:51;6.80;99.90
1411;DHT22;700;51.906;8.404;2022-11-14T07:26:52;7.00;99.90
1411;DHT22;700;51.906;8.404;2022-11-14T07:31:54;6.80;99.90
1411;DHT22;700;51.906;8.404;2022-11-14T07:36:57;7.30;99.90
1411;DHT22;700;51.906;8.404;2022-11-14T07:42:02;7.60;99.90
1411;DHT22;700;51.906;8.404;2022-11-14T07:47:03;7.80;99.90
1411;DHT22;700;51.906;8.404;2022-11-14T07:52:03;8.00;99.90
1411;DHT22;700;51.906;8.404;2022-11-14T07:57:04;7.80;99.90
1411;DHT22;700;51.906;8.404;2022-11-14T08:02:07;8.10;99.90
1411;DHT22;700;51.906;8.404;2022-11-14T08:07:08;8.90;99.90
1411;DHT22;700;51.906;8.404;2022-11-14T08:12:09;9.80;99.90
1411;DHT22;700;51.906;8.404;2022-11-14T08:17:10;10.50;99.90
1411;DHT22;700;51.906;8.404;2022-11-14T08:22:13;11.50;99.90
1411;DHT22;700;51.906;8.404;2022-11-14T08:27:13;12.50;99.90
1411;DHT22;700;51.906;8.404;2022-11-14T08:32:18;13.30;99.90
1411;DHT22;700;51.906;8.404;2022-11-14T08:37:18;15.40;99.90
1411;DHT22;700;51.906;8.404;2022-11-14T08:42:21;17.40;99.90
1411;DHT22;700;51.906;8.404;2022-11-14T08:47:24;18.50;96.10
1411;DHT22;700;51.906;8.404;2022-11-14T08:52:25;18.30;93.60
1411;DHT22;700;51.906;8.404;2022-11-14T08:57:27;19.60;87.20
1411;DHT22;700;51.906;8.404;2022-11-14T09:02:33;20.10;84.60
1411;DHT22;700;51.906;8.404;2022-11-14T09:07:33;19.50;82.20
1411;DHT22;700;51.906;8.404;2022-11-14T09:12:37;20.40;82.20
1411;DHT22;700;51.906;8.404;2022-11-14T09:17:37;22.90;75.80
1411;DHT22;700;51.906;8.404;2022-11-14T09:22:39;23.90;67.30
1411;DHT22;700;51.906;8.404;2022-11-14T09:27:40;23.00;65.80
1411;DHT22;700;51.906;8.404;2022-11-14T09:32:40;24.00;64.80
1411;DHT22;700;51.906;8.404;2022-11-14T09:37:43;22.90;62.30
1411;DHT22;700;51.906;8.404;2022-11-14T09:48:17;23.10;64.10
1411;DHT22;700;51.906;8.404;2022-11-14T09:53:31;23.00;60.90
1411;DHT22;700;51.906;8.404;2022-11-14T09:58:35;22.60;60.90
1411;DHT22;700;51.906;8.404;2022-11-14T10:20:02;18.80;71.00
1411;DHT22;700;51.906;8.404;2022-11-14T10:30:21;17.20;79.50
1411;DHT22;700;51.906;8.404;2022-11-14T10:40:43;18.00;79.60
1411;DHT22;700;51.906;8.404;2022-11-14T10:45:51;16.50;81.40
1411;DHT22;700;51.906;8.404;2022-11-14T10:51:10;15.70;88.40
1411;DHT22;700;51.906;8.404;2022-11-14T10:56:17;15.60;92.30
1411;DHT22;700;51.906;8.404;2022-11-14T11:01:35;15.90;93.10
1411;DHT22;700;51.906;8.404;2022-11-14T11:06:36;15.80;93.30
1411;DHT22;700;51.906;8.404;2022-11-14T11:11:42;15.60;94.60
1411;DHT22;700;51.906;8.404;2022-11-14T11:17:12;14.80;96.10
1411;DHT22;700;51.906;8.404;2022-11-14T11:27:29;15.20;97.50
1411;DHT22;700;51.906;8.404;2022-11-14T11:32:30;15.00;98.70
1411;DHT22;700;51.906;8.404;2022-11-14T11:42:57;15.90;98.50
1411;DHT22;700;51.906;8.404;2022-11-14T11:53:42;15.50;98.50
1411;DHT22;700;51.906;8.404;2022-11-14T11:58:49;15.00;99.20
1411;DHT22;700;51.906;8.404;2022-11-14T12:03:51;15.60;99.40
1411;DHT22;700;51.906;8.404;2022-11-14T12:09:16;15.40;99.30
1411;DHT22;700;51.906;8.404;2022-11-14T12:30:28;18.60;93.30
1411;DHT22;700;51.906;8.404;2022-11-14T12:35:36;18.50;94.10
1411;DHT22;700;51.906;8.404;2022-11-14T12:40:48;17.90;93.50
1411;DHT22;700;51.906;8.404;2022-11-14T12:50:51;16.90;95.30
1411;DHT22;700;51.906;8.404;2022-11-14T12:55:53;16.40;96.90
1411;DHT22;700;51.906;8.404;2022-11-14T13:11:45;16.30;98.70
1411;DHT22;700;51.906;8.404;2022-11-14T13:22:35;19.10;94.30
1411;DHT22;700;51.906;8.404;2022-11-14T13:27:41;19.80;92.70
1411;DHT22;700;51.906;8.404;2022-11-14T13:53:38;17.20;98.00
1411;DHT22;700;51.906;8.404;2022-11-14T13:59:10;18.10;97.90
1411;DHT22;700;51.906;8.404;2022-11-14T14:15:01;16.00;99.90
1411;DHT22;700;51.906;8.404;2022-11-14T14:36:20;15.20;99.90
1411;DHT22;700;51.906;8.404;2022-11-14T14:41:23;14.70;99.90
1411;DHT22;700;51.906;8.404;2022-11-14T14:46:28;14.90;99.90
1411;DHT22;700;51.906;8.404;2022-11-14T14:51:34;14.90;99.90
1411;DHT22;700;51.906;8.404;2022-11-14T14:56:35;14.80;99.90
1411;DHT22;700;51.906;8.404;2022-11-14T15:01:35;14.90;99.90
1411;DHT22;700;51.906;8.404;2022-11-14T15:06:38;14.40;99.90
1411;DHT22;700;51.906;8.404;2022-11-14T15:11:41;14.20;99.90
1411;DHT22;700;51.906;8.404;2022-11-14T15:16:44;13.90;99.90
1411;DHT22;700;51.906;8.404;2022-11-14T15:27:17;13.60;99.90
1411;DHT22;700;51.906;8.404;2022-11-14T15:32:20;13.10;99.90
1411;DHT22;700;51.906;8.404;2022-11-14T15:37:24;13.00;99.90
1411;DHT22;700;51.906;8.404;2022-11-14T15:42:26;13.00;99.90
1411;DHT22;700;51.906;8.404;2022-11-14T15:47:31;13.00;99.90
1411;DHT22;700;51.906;8.404;2022-11-14T15:52:36;12.90;99.90
1411;DHT22;700;51.906;8.404;2022-11-14T15:57:42;12.70;99.90
1411;DHT22;700;51.906;8.404;2022-11-14T16:07:44;12.60;99.90
1411;DHT22;700;51.906;8.404;2022-11-14T16:12:46;12.60;99.90
1411;DHT22;700;51.906;8.404;2022-11-14T16:17:48;12.50;99.90
1411;DHT22;700;51.906;8.404;2022-11-14T16:22:50;12.50;99.90
1411;DHT22;700;51.906;8.404;2022-11-14T16:27:54;12.30;99.90
1411;DHT22;700;51.906;8.404;2022-11-14T16:32:57;12.20;99.90
1411;DHT22;700;51.906;8.404;2022-11-14T16:37:58;12.20;99.90
1411;DHT22;700;51.906;8.404;2022-11-14T16:43:01;12.30;99.90
1411;DHT22;700;51.906;8.404;2022-11-14T16:48:02;12.30;99.90
1411;DHT22;700;51.906;8.404;2022-11-14T16:53:03;12.30;99.90
1411;DHT22;700;51.906;8.404;2022-11-14T16:58:04;12.40;99.90
1411;DHT22;700;51.906;8.404;2022-11-14T17:03:07;12.20;99.90
1411;DHT22;700;51.906;8.404;2022-11-14T17:08:07;12.30;99.90
1411;DHT22;700;51.906;8.404;2022-11-14T17:13:12;12.40;99.90
1411;DHT22;700;51.906;8.404;2022-11-14T17:18:13;12.40;99.90
1411;DHT22;700;51.906;8.404;2022-11-14T17:23:13;12.40;99.90
1411;DHT22;700;51.906;8.404;2022-11-14T17:28:16;12.40;99.90
1411;DHT22;700;51.906;8.404;2022-11-14T17:33:17;12.50;99.90
1411;DHT22;700;51.906;8.404;2022-11-14T17:38:20;12.50;99.90
1411;DHT22;700;51.906;8.404;2022-11-14T17:43:21;12.50;99.90
1411;DHT22;700;51.906;8.404;2022-11-14T17:48:24;12.50;99.90
1411;DHT22;700;51.906;8.404;2022-11-14T17:53:28;12.30;99.90
1411;DHT22;700;51.906;8.404;2022-11-14T17:58:31;12.20;99.90
1411;DHT22;700;51.906;8.404;2022-11-14T18:03:34;12.10;99.90
1411;DHT22;700;51.906;8.404;2022-11-14T18:08:40;11.70;99.90
1411;DHT22;700;51.906;8.404;2022-11-14T18:13:41;11.40;99.90
1411;DHT22;700;51.906;8.404;2022-11-14T18:18:45;11.80;99.90
1411;DHT22;700;51.906;8.404;2022-11-14T18:23:50;11.90;99.90
1411;DHT22;700;51.906;8.404;2022-11-14T18:28:55;12.00;99.90
1411;DHT22;700;51.906;8.404;2022-11-14T18:33:56;12.10;99.90
1411;DHT22;700;51.906;8.404;2022-11-14T18:38:57;12.00;99.90
1411;DHT22;700;51.906;8.404;2022-11-14T18:44:00;12.20;99.90
1411;DHT22;700;51.906;8.404;2022-11-14T18:49:03;12.20;99.90
1411;DHT22;700;51.906;8.404;2022-11-14T18:54:40;12.30;99.90
1411;DHT22;700;51.906;8.404;2022-11-14T18:59:41;12.50;99.90
1411;DHT22;700;51.906;8.404;2022-11-14T19:04:44;12.60;99.90
1411;DHT22;700;51.906;8.404;2022-11-14T19:09:44;12.70;99.90
1411;DHT22;700;51.906;8.404;2022-11-14T19:14:45;12.60;99.90
1411;DHT22;700;51.906;8.404;2022-11-14T19:19:50;12.80;99.90
1411;DHT22;700;51.906;8.404;2022-11-14T19:24:53;12.90;99.90
1411;DHT22;700;51.906;8.404;2022-11-14T19:29:53;12.60;99.90
1411;DHT22;700;51.906;8.404;2022-11-14T19:34:59;12.70;99.90
1411;DHT22;700;51.906;8.404;2022-11-14T19:40:02;12.80;99.90
1411;DHT22;700;51.906;8.404;2022-11-14T19:45:03;13.10;99.90
1411;DHT22;700;51.906;8.404;2022-11-14T19:50:04;13.30;99.90
1411;DHT22;700;51.906;8.404;2022-11-14T19:55:07;13.20;99.90
1411;DHT22;700;51.906;8.404;2022-11-14T20:00:11;13.30;99.90
1411;DHT22;700;51.906;8.404;2022-11-14T20:05:12;13.00;99.90
1411;DHT22;700;51.906;8.404;2022-11-14T20:10:12;13.10;99.90
1411;DHT22;700;51.906;8.404;2022-11-14T20:15:13;12.90;99.90
1411;DHT22;700;51.906;8.404;2022-11-14T20:20:16;13.00;99.90
1411;DHT22;700;51.906;8.404;2022-11-14T20:25:17;13.00;99.90
1411;DHT22;700;51.906;8.404;2022-11-14T20:30:18;13.00;99.90
1411;DHT22;700;51.906;8.404;2022-11-14T20:35:20;13.00;99.90
1411;DHT22;700;51.906;8.404;2022-11-14T20:40:21;13.00;99.90
1411;DHT22;700;51.906;8.404;2022-11-14T20:45:22;13.00;99.90
1411;DHT22;700;51.906;8.404;2022-11-14T20:50:28;13.00;99.90
1411;DHT22;700;51.906;8.404;2022-11-14T20:55:29;12.80;99.90
1411;DHT22;700;51.906;8.404;2022-11-14T21:00:30;12.80;99.90
1411;DHT22;700;51.906;8.404;2022-11-14T21:05:31;12.90;99.90
1411;DHT22;700;51.906;8.404;2022-11-14T21:10:39;12.60;99.90
1411;DHT22;700;51.906;8.404;2022-11-14T21:15:45;12.80;99.90
1411;DHT22;700;51.906;8.404;2022-11-14T21:20:50;12.70;99.90
1411;DHT22;700;51.906;8.404;2022-11-14T21:26:01;12.70;99.90
1411;DHT22;700;51.906;8.404;2022-11-14T21:31:22;12.60;99.90
1411;DHT22;700;51.906;8.404;2022-11-14T21:36:24;12.40;99.90
1411;DHT22;700;51.906;8.404;2022-11-14T21:41:26;12.50;99.90
1411;DHT22;700;51.906;8.404;2022-11-14T21:46:27;12.40;99.90
1411;DHT22;700;51.906;8.404;2022-11-14T21:51:28;12.40;99.90
1411;DHT22;700;51.906;8.404;2022-11-14T21:56:35;12.30;99.90
1411;DHT22;700;51.906;8.404;2022-11-14T22:01:43;12.30;99.90
1411;DHT22;700;51.906;8.404;2022-11-14T22:07:07;12.30;99.90
1411;DHT22;700;51.906;8.404;2022-11-14T22:12:08;12.40;99.90
1411;DHT22;700;51.906;8.404;2022-11-14T22:17:08;12.30;99.90
1411;DHT22;700;51.906;8.404;2022-11-14T22:22:11;12.30;99.90
1411;DHT22;700;51.906;8.404;2022-11-14T22:27:12;12.30;99.90
1411;DHT22;700;51.906;8.404;2022-11-14T22:32:12;12.20;99.90
1411;DHT22;700;51.906;8.404;2022-11-14T22:37:13;11.90;99.90
1411;DHT22;700;51.906;8.404;2022-11-14T22:42:14;11.90;99.90
1411;DHT22;700;51.906;8.404;2022-11-14T22:47:14;12.10;99.90
1411;DHT22;700;51.906;8.404;2022-11-14T22:52:15;12.20;99.90
1411;DHT22;700;51.906;8.404;2022-11-14T22:57:16;12.30;99.90
1411;DHT22;700;51.906;8.404;2022-11-14T23:02:19;12.40;99.90
1411;DHT22;700;51.906;8.404;2022-11-14T23:07:19;12.40;99.90
1411;DHT22;700;51.906;8.404;2022-11-14T23:12:20;12.40;99.90
1411;DHT22;700;51.906;8.404;2022-11-14T23:17:21;12.30;99.90
1411;DHT22;700;51.906;8.404;2022-11-14T23:22:21;12.00;99.90
1411;DHT22;700;51.906;8.404;2022-11-14T23:27:22;12.00;99.90
1411;DHT22;700;51.906;8.404;2022-11-14T23:32:22;11.90;99.90
1411;DHT22;700;51.906;8.404;2022-11-14T23:37:28;12.10;99.90
1411;DHT22;700;51.906;8.404;2022-11-14T23:42:28;12.10;99.90
1411;DHT22;700;51.906;8.404;2022-11-14T23:47:31;12.20;99.90
1411;DHT22;700;51.906;8.404;2022-11-14T23:52:35;12.30;99.90
1411;DHT22;700;51.906;8.404;2022-11-14T23:57:39;12.50;99.90
